createdAt,value
2022-11-05T00:00:20.986Z,100.00
2022-11-05T00:03:06.432Z,100.00
2022-11-05T00:05:52.074Z,100.00
2022-11-05T00:08:37.582Z,100.00
2022-11-05T00:11:04.780Z,100.00
2022-11-05T00:13:50.521Z,100.00
2022-11-05T00:16:36.425Z,100.00
2022-11-05T00:19:10.354Z,100.00
2022-11-05T00:21:57.676Z,100.00
2022-11-05T00:24:43.686Z,100.00
2022-11-05T00:27:11.074Z,100.00
2022-11-05T00:29:38.155Z,100.00
2022-11-05T00:32:05.369Z,100.00
2022-11-05T00:34:32.515Z,100.00
2022-11-05T00:36:59.467Z,100.00
2022-11-05T00:39:26.715Z,100.00
2022-11-05T00:42:12.592Z,100.00
2022-11-05T00:44:58.154Z,100.00
2022-11-05T00:47:43.738Z,100.00
2022-11-05T00:50:11.919Z,100.00
2022-11-05T00:52:57.809Z,100.00
2022-11-05T00:55:46.188Z,100.00
2022-11-05T00:58:16.757Z,100.00
2022-11-05T01:00:48.179Z,100.00
2022-11-05T01:03:17.855Z,100.00
2022-11-05T01:05:48.676Z,100.00
2022-11-05T01:08:17.290Z,100.00
2022-11-05T01:10:47.600Z,100.00
2022-11-05T01:13:19.744Z,100.00
2022-11-05T01:15:47.897Z,100.00
2022-11-05T01:18:15.145Z,100.00
2022-11-05T01:20:42.297Z,100.00
2022-11-05T01:23:13.580Z,100.00
2022-11-05T01:25:42.407Z,100.00
2022-11-05T01:28:10.286Z,100.00
2022-11-05T01:30:37.679Z,100.00
2022-11-05T01:33:05.024Z,100.00
2022-11-05T01:35:32.147Z,100.00
2022-11-05T01:37:59.437Z,100.00
2022-11-05T01:40:26.990Z,100.00
2022-11-05T01:42:54.187Z,100.00
2022-11-05T01:45:27.318Z,100.00
2022-11-05T01:48:03.271Z,100.00
2022-11-05T01:50:42.035Z,100.00
2022-11-05T01:53:27.240Z,100.00
2022-11-05T01:56:01.290Z,100.00
2022-11-05T01:58:34.125Z,100.00
2022-11-05T02:01:01.628Z,100.00
2022-11-05T02:03:30.250Z,100.00
2022-11-05T02:06:00.886Z,100.00
2022-11-05T02:08:57.456Z,100.00
2022-11-05T02:11:25.192Z,100.00
2022-11-05T02:13:53.037Z,100.00
2022-11-05T02:16:35.840Z,100.00
2022-11-05T02:19:27.666Z,100.00
2022-11-05T02:22:16.654Z,100.00
2022-11-05T02:24:53.047Z,100.00
2022-11-05T02:27:48.806Z,100.00
2022-11-05T02:30:33.838Z,100.00
2022-11-05T02:33:31.807Z,100.00
2022-11-05T02:36:17.575Z,100.00
2022-11-05T02:39:13.284Z,100.00
2022-11-05T02:42:01.948Z,100.00
2022-11-05T02:44:44.582Z,100.00
2022-11-05T02:47:38.684Z,100.00
2022-11-05T02:50:32.681Z,100.00
2022-11-05T02:53:10.948Z,100.00
2022-11-05T02:56:00.880Z,100.00
2022-11-05T02:58:29.578Z,100.00
2022-11-05T03:00:58.149Z,100.00
2022-11-05T03:03:50.478Z,100.00
2022-11-05T03:06:44.646Z,100.00
2022-11-05T03:09:45.475Z,100.00
2022-11-05T03:12:30.956Z,100.00
2022-11-05T03:15:31.490Z,100.00
2022-11-05T03:18:02.364Z,100.00
2022-11-05T03:20:48.562Z,100.00
2022-11-05T03:23:33.959Z,100.00
2022-11-05T03:26:29.449Z,100.00
2022-11-05T03:29:08.851Z,100.00
2022-11-05T03:31:38.276Z,100.00
2022-11-05T03:34:09.087Z,100.00
2022-11-05T03:36:42.018Z,100.00
2022-11-05T03:39:16.047Z,100.00
2022-11-05T03:41:46.354Z,100.00
2022-11-05T03:44:14.837Z,100.00
2022-11-05T03:46:45.675Z,100.00
2022-11-05T03:49:21.818Z,100.00
2022-11-05T03:52:20.105Z,100.00
2022-11-05T03:54:47.636Z,100.00
2022-11-05T03:57:22.546Z,100.00
2022-11-05T03:59:51.047Z,100.00
2022-11-05T04:02:26.012Z,100.00
2022-11-05T04:04:54.366Z,100.00
2022-11-05T04:07:39.954Z,100.00
2022-11-05T04:10:25.647Z,100.00
2022-11-05T04:13:11.623Z,100.00
2022-11-05T04:15:57.787Z,100.00
2022-11-05T04:18:24.910Z,100.00
2022-11-05T04:21:10.516Z,100.00
2022-11-05T04:23:55.979Z,100.00
2022-11-05T04:26:23.664Z,100.00
2022-11-05T04:29:09.898Z,100.00
2022-11-05T04:31:37.818Z,100.00
2022-11-05T04:34:04.913Z,100.00
2022-11-05T04:36:32.155Z,100.00
2022-11-05T04:38:59.205Z,100.00
2022-11-05T04:41:26.707Z,100.00
2022-11-05T04:43:53.901Z,100.00
2022-11-05T04:46:20.966Z,100.00
2022-11-05T04:48:48.100Z,100.00
2022-11-05T04:51:16.594Z,100.00
2022-11-05T04:53:43.658Z,100.00
2022-11-05T04:56:19.834Z,100.00
2022-11-05T04:58:47.336Z,100.00
2022-11-05T05:01:20.199Z,100.00
2022-11-05T05:03:48.764Z,100.00
2022-11-05T05:06:17.105Z,100.00
2022-11-05T05:08:44.256Z,100.00
2022-11-05T05:11:13.659Z,100.00
2022-11-05T05:13:40.856Z,100.00
2022-11-05T05:16:10.135Z,100.00
2022-11-05T05:18:40.910Z,100.00
2022-11-05T05:21:29.143Z,100.00
2022-11-05T05:23:56.256Z,100.00
2022-11-05T05:26:23.430Z,100.00
2022-11-05T05:28:50.432Z,100.00
2022-11-05T05:31:17.531Z,100.00
2022-11-05T05:33:44.607Z,100.00
2022-11-05T05:36:11.808Z,100.00
2022-11-05T05:38:38.939Z,100.00
2022-11-05T05:41:06.210Z,100.00
2022-11-05T05:43:34.260Z,100.00
2022-11-05T05:46:10.865Z,100.00
2022-11-05T05:48:38.105Z,100.00
2022-11-05T05:51:08.113Z,100.00
2022-11-05T05:53:35.464Z,100.00
2022-11-05T05:56:03.302Z,100.00
2022-11-05T05:58:35.947Z,100.00
2022-11-05T06:01:05.040Z,100.00
2022-11-05T06:03:32.275Z,100.00
2022-11-05T06:06:07.561Z,100.00
2022-11-05T06:08:34.846Z,100.00
2022-11-05T06:11:02.905Z,100.00
2022-11-05T06:13:30.096Z,100.00
2022-11-05T06:16:02.477Z,100.00
2022-11-05T06:18:30.895Z,100.00
2022-11-05T06:21:12.367Z,100.00
2022-11-05T06:23:41.643Z,100.00
2022-11-05T06:26:11.433Z,100.00
2022-11-05T06:28:38.538Z,100.00
2022-11-05T06:31:06.266Z,100.00
2022-11-05T06:33:33.455Z,100.00
2022-11-05T06:36:01.824Z,100.00
2022-11-05T06:38:29.664Z,100.00
2022-11-05T06:40:59.261Z,100.00
2022-11-05T06:43:27.516Z,100.00
2022-11-05T06:45:55.604Z,100.00
2022-11-05T06:48:23.131Z,100.00
2022-11-05T06:50:50.220Z,100.00
2022-11-05T06:53:17.294Z,100.00
2022-11-05T06:55:48.213Z,100.00
2022-11-05T06:58:16.057Z,100.00
2022-11-05T07:00:43.289Z,100.00
2022-11-05T07:03:12.374Z,100.00
2022-11-05T07:05:46.785Z,100.00
2022-11-05T07:08:13.966Z,100.00
2022-11-05T07:10:41.117Z,100.00
2022-11-05T07:13:08.995Z,100.00
2022-11-05T07:15:37.612Z,100.00
2022-11-05T07:18:07.574Z,100.00
2022-11-05T07:20:35.446Z,100.00
2022-11-05T07:23:04.748Z,100.00
2022-11-05T07:25:33.339Z,100.00
2022-11-05T07:28:01.068Z,100.00
2022-11-05T07:30:29.307Z,100.00
2022-11-05T07:32:56.707Z,100.00
2022-11-05T07:35:24.773Z,100.00
2022-11-05T07:37:56.620Z,100.00
2022-11-05T07:40:26.195Z,100.00
2022-11-05T07:42:58.985Z,100.00
2022-11-05T07:45:28.246Z,100.00
2022-11-05T07:47:57.632Z,100.00
2022-11-05T07:50:27.327Z,100.00
2022-11-05T07:52:59.365Z,100.00
2022-11-05T07:55:26.415Z,100.00
2022-11-05T07:57:53.594Z,100.00
2022-11-05T08:00:23.217Z,100.00
2022-11-05T08:03:08.890Z,100.00
2022-11-05T08:05:38.385Z,100.00
2022-11-05T08:08:07.433Z,100.00
2022-11-05T08:10:34.701Z,100.00
2022-11-05T08:13:02.594Z,100.00
2022-11-05T08:15:30.052Z,100.00
2022-11-05T08:18:01.686Z,100.00
2022-11-05T08:20:29.155Z,100.00
2022-11-05T08:22:57.190Z,100.00
2022-11-05T08:25:25.135Z,100.00
2022-11-05T08:28:00.320Z,100.00
2022-11-05T08:30:28.058Z,100.00
2022-11-05T08:33:03.715Z,100.00
2022-11-05T08:35:31.424Z,100.00
2022-11-05T08:38:00.799Z,100.00
2022-11-05T08:40:28.226Z,100.00
2022-11-05T08:42:59.599Z,100.00
2022-11-05T08:45:27.946Z,100.00
2022-11-05T08:48:01.360Z,100.00
2022-11-05T08:50:29.350Z,100.00
2022-11-05T08:52:57.148Z,100.00
2022-11-05T08:55:24.336Z,100.00
2022-11-05T08:58:12.818Z,100.00
2022-11-05T09:00:40.363Z,100.00
2022-11-05T09:03:09.460Z,100.00
2022-11-05T09:05:39.467Z,100.00
2022-11-05T09:08:17.926Z,100.00
2022-11-05T09:10:46.906Z,100.00
2022-11-05T09:13:18.865Z,100.00
2022-11-05T09:15:48.134Z,100.00
2022-11-05T09:18:15.816Z,100.00
2022-11-05T09:20:43.272Z,100.00
2022-11-05T09:23:11.980Z,100.00
2022-11-05T09:25:39.381Z,100.00
2022-11-05T09:28:16.784Z,100.00
2022-11-05T09:30:50.334Z,100.00
2022-11-05T09:33:20.358Z,100.00
2022-11-05T09:35:47.796Z,100.00
2022-11-05T09:38:15.168Z,100.00
2022-11-05T09:40:47.866Z,100.00
2022-11-05T09:43:24.990Z,100.00
2022-11-05T09:45:58.438Z,100.00
2022-11-05T09:48:30.495Z,100.00
2022-11-05T09:50:58.492Z,100.00
2022-11-05T09:53:26.405Z,100.00
2022-11-05T09:55:59.063Z,100.00
2022-11-05T09:58:41.153Z,100.00
2022-11-05T10:01:15.379Z,100.00
2022-11-05T10:03:50.445Z,100.00
2022-11-05T10:06:23.287Z,100.00
2022-11-05T10:09:00.204Z,100.00
2022-11-05T10:11:37.449Z,100.00
2022-11-05T10:14:18.367Z,100.00
2022-11-05T10:16:51.775Z,100.00
2022-11-05T10:19:26.495Z,100.00
2022-11-05T10:22:12.133Z,100.00
2022-11-05T10:24:42.875Z,100.00
2022-11-05T10:27:17.417Z,100.00
2022-11-05T10:29:45.440Z,100.00
2022-11-05T10:32:21.814Z,100.00
2022-11-05T10:34:50.354Z,100.00
2022-11-05T10:37:24.842Z,100.00
2022-11-05T10:39:52.003Z,100.00
2022-11-05T10:42:45.098Z,100.00
2022-11-05T10:45:18.403Z,100.00
2022-11-05T10:48:12.175Z,100.00
2022-11-05T10:50:40.090Z,100.00
2022-11-05T10:53:15.334Z,100.00
2022-11-05T10:55:46.288Z,100.00
2022-11-05T10:58:16.171Z,100.00
2022-11-05T11:00:45.918Z,100.00
2022-11-05T11:03:39.784Z,100.00
2022-11-05T11:06:20.456Z,100.00
2022-11-05T11:08:48.987Z,100.00
2022-11-05T11:11:29.274Z,100.00
2022-11-05T11:14:07.484Z,100.00
2022-11-05T11:16:46.617Z,100.00
2022-11-05T11:19:34.667Z,100.00
2022-11-05T11:22:04.833Z,100.00
2022-11-05T11:24:38.545Z,100.00
2022-11-05T11:27:15.027Z,100.00
2022-11-05T11:29:49.344Z,100.00
2022-11-05T11:32:19.855Z,100.00
2022-11-05T11:34:51.857Z,100.00
2022-11-05T11:37:28.879Z,100.00
2022-11-05T11:40:13.880Z,100.00
2022-11-05T11:42:45.696Z,100.00
2022-11-05T11:45:25.359Z,100.00
2022-11-05T11:47:52.555Z,100.00
2022-11-05T11:50:33.987Z,100.00
2022-11-05T11:53:22.612Z,99.93
2022-11-05T11:55:55.906Z,100.00
2022-11-05T11:58:25.854Z,100.00
2022-11-05T12:01:04.743Z,99.90
2022-11-05T12:03:51.970Z,99.91
2022-11-05T12:07:08.197Z,99.76
2022-11-05T12:09:44.632Z,99.60
2022-11-05T12:12:14.696Z,100.00
2022-11-05T12:15:01.628Z,99.93
2022-11-05T12:17:50.124Z,99.70
2022-11-05T12:20:48.142Z,99.36
2022-11-05T12:23:21.265Z,99.22
2022-11-05T12:25:56.335Z,98.97
2022-11-05T12:28:32.393Z,99.06
2022-11-05T12:31:10.981Z,98.98
2022-11-05T12:33:55.506Z,98.90
2022-11-05T12:36:47.686Z,99.02
2022-11-05T12:39:44.106Z,99.53
2022-11-05T12:42:20.076Z,99.13
2022-11-05T12:45:04.707Z,99.15
2022-11-05T12:47:50.104Z,99.26
2022-11-05T12:50:28.758Z,99.69
2022-11-05T12:52:55.773Z,99.40
2022-11-05T12:55:25.933Z,99.30
2022-11-05T12:58:01.622Z,98.99
2022-11-05T13:00:29.878Z,99.30
2022-11-05T13:03:09.422Z,99.00
2022-11-05T13:05:42.104Z,99.25
2022-11-05T13:08:18.047Z,99.66
2022-11-05T13:10:56.075Z,99.27
2022-11-05T13:14:04.706Z,99.28
2022-11-05T13:16:38.677Z,99.27
2022-11-05T13:19:15.760Z,99.67
2022-11-05T13:21:47.875Z,99.74
2022-11-05T13:24:20.956Z,99.36
2022-11-05T13:27:13.114Z,99.32
2022-11-05T13:29:49.678Z,99.73
2022-11-05T13:32:38.259Z,99.81
2022-11-05T13:35:08.690Z,99.50
2022-11-05T13:37:55.918Z,99.47
2022-11-05T13:40:45.496Z,99.32
2022-11-05T13:43:35.878Z,99.16
2022-11-05T13:46:59.855Z,99.03
2022-11-05T13:49:45.014Z,98.96
2022-11-05T13:52:30.518Z,98.95
2022-11-05T13:54:57.545Z,99.12
2022-11-05T13:58:15.117Z,98.88
2022-11-05T14:01:09.401Z,98.33
2022-11-05T14:03:37.338Z,98.33
2022-11-05T14:06:10.156Z,98.39
2022-11-05T14:08:44.215Z,97.89
2022-11-05T14:11:30.976Z,98.41
2022-11-05T14:14:01.793Z,98.86
2022-11-05T14:16:47.603Z,97.88
2022-11-05T14:19:20.644Z,97.74
2022-11-05T14:21:58.195Z,97.59
2022-11-05T14:24:28.324Z,97.30
2022-11-05T14:27:01.470Z,97.01
2022-11-05T14:29:42.886Z,97.13
2022-11-05T14:32:19.109Z,97.34
2022-11-05T14:35:22.959Z,96.98
2022-11-05T14:37:58.509Z,96.57
2022-11-05T14:40:32.480Z,96.78
2022-11-05T14:43:03.357Z,96.50
2022-11-05T14:45:35.418Z,96.59
2022-11-05T14:48:25.485Z,95.97
2022-11-05T14:50:52.913Z,96.24
2022-11-05T14:53:34.296Z,96.78
2022-11-05T14:56:06.676Z,97.32
2022-11-05T14:58:35.781Z,96.99
2022-11-05T15:01:31.931Z,97.05
2022-11-05T15:04:28.009Z,97.17
2022-11-05T15:07:04.115Z,97.37
2022-11-05T15:09:49.356Z,97.03
2022-11-05T15:12:25.807Z,97.35
2022-11-05T15:15:04.345Z,97.73
2022-11-05T15:17:42.574Z,97.52
2022-11-05T15:20:15.164Z,97.65
2022-11-05T15:22:45.825Z,97.67
2022-11-05T15:25:25.749Z,97.42
2022-11-05T15:27:58.786Z,97.58
2022-11-05T15:30:26.500Z,97.67
2022-11-05T15:32:53.974Z,98.01
2022-11-05T15:35:23.747Z,98.15
2022-11-05T15:37:55.902Z,97.96
2022-11-05T15:40:28.066Z,98.01
2022-11-05T15:43:21.746Z,98.34
2022-11-05T15:46:14.438Z,98.23
2022-11-05T15:48:45.085Z,98.46
2022-11-05T15:51:12.636Z,98.35
2022-11-05T15:54:15.719Z,98.70
2022-11-05T15:56:53.204Z,98.65
2022-11-05T15:59:22.638Z,98.45
2022-11-05T16:02:06.048Z,98.67
2022-11-05T16:04:35.273Z,98.65
2022-11-05T16:07:10.017Z,98.94
2022-11-05T16:09:40.296Z,98.74
2022-11-05T16:12:19.703Z,98.75
2022-11-05T16:15:08.287Z,98.48
2022-11-05T16:17:38.079Z,98.55
2022-11-05T16:20:18.570Z,98.51
2022-11-05T16:22:53.145Z,98.08
2022-11-05T16:25:39.711Z,98.11
2022-11-05T16:28:23.380Z,97.97
2022-11-05T16:31:05.377Z,98.01
2022-11-05T16:33:45.554Z,98.17
2022-11-05T16:36:13.128Z,98.20
2022-11-05T16:38:40.595Z,98.22
2022-11-05T16:41:13.725Z,97.96
2022-11-05T16:43:40.777Z,98.24
2022-11-05T16:46:12.297Z,98.02
2022-11-05T16:48:39.381Z,98.10
2022-11-05T16:51:08.617Z,98.11
2022-11-05T16:53:35.806Z,97.93
2022-11-05T16:56:03.547Z,97.96
2022-11-05T16:58:30.974Z,97.95
2022-11-05T17:01:04.163Z,97.72
2022-11-05T17:03:31.637Z,98.06
2022-11-05T17:05:58.879Z,98.07
2022-11-05T17:08:26.098Z,98.30
2022-11-05T17:10:53.291Z,98.11
2022-11-05T17:13:20.714Z,97.78
2022-11-05T17:15:50.125Z,98.04
2022-11-05T17:18:19.107Z,97.86
2022-11-05T17:20:49.366Z,97.85
2022-11-05T17:23:19.160Z,97.75
2022-11-05T17:25:49.381Z,97.40
2022-11-05T17:28:17.478Z,97.25
2022-11-05T17:30:51.943Z,97.15
2022-11-05T17:33:20.770Z,97.49
2022-11-05T17:35:47.951Z,97.03
2022-11-05T17:38:15.562Z,96.88
2022-11-05T17:40:43.049Z,96.99
2022-11-05T17:43:10.911Z,97.11
2022-11-05T17:45:47.177Z,97.02
2022-11-05T17:48:15.364Z,96.71
2022-11-05T17:50:44.512Z,96.60
2022-11-05T17:53:12.897Z,96.32
2022-11-05T17:55:44.886Z,96.50
2022-11-05T17:58:12.388Z,96.50
2022-11-05T18:00:40.770Z,96.16
2022-11-05T18:03:08.032Z,96.06
2022-11-05T18:05:35.236Z,96.18
2022-11-05T18:08:02.743Z,95.61
2022-11-05T18:10:30.005Z,95.88
2022-11-05T18:12:57.255Z,95.50
2022-11-05T18:15:24.544Z,95.77
2022-11-05T18:17:51.670Z,95.60
2022-11-05T18:20:19.636Z,95.22
2022-11-05T18:22:49.505Z,95.59
2022-11-05T18:25:17.525Z,94.98
2022-11-05T18:27:45.337Z,95.17
2022-11-05T18:30:15.688Z,95.11
2022-11-05T18:32:43.628Z,94.74
2022-11-05T18:35:11.281Z,95.28
2022-11-05T18:37:39.086Z,95.19
2022-11-05T18:40:07.875Z,94.79
2022-11-05T18:42:35.036Z,94.52
2022-11-05T18:45:02.335Z,95.02
2022-11-05T18:47:29.595Z,94.79
2022-11-05T18:49:56.656Z,94.96
2022-11-05T18:52:23.796Z,95.10
2022-11-05T18:54:50.860Z,94.64
2022-11-05T18:57:18.446Z,94.79
2022-11-05T18:59:46.907Z,94.99
2022-11-05T19:02:14.903Z,94.62
2022-11-05T19:05:00.443Z,94.93
2022-11-05T19:07:29.707Z,95.07
2022-11-05T19:09:56.791Z,95.09
2022-11-05T19:12:23.943Z,95.02
2022-11-05T19:14:51.077Z,95.23
2022-11-05T19:17:18.285Z,95.07
2022-11-05T19:19:45.371Z,95.09
2022-11-05T19:22:12.420Z,95.14
2022-11-05T19:24:39.499Z,95.05
2022-11-05T19:27:06.661Z,94.76
2022-11-05T19:29:33.888Z,95.31
2022-11-05T19:32:00.911Z,95.78
2022-11-05T19:34:28.035Z,95.34
2022-11-05T19:36:55.114Z,95.12
2022-11-05T19:39:22.265Z,95.43
2022-11-05T19:41:50.060Z,94.96
2022-11-05T19:44:17.517Z,95.42
2022-11-05T19:46:44.835Z,94.85
2022-11-05T19:49:12.625Z,94.63
2022-11-05T19:51:40.356Z,95.23
2022-11-05T19:54:08.087Z,95.20
2022-11-05T19:56:36.995Z,95.03
2022-11-05T19:59:06.737Z,95.35
2022-11-05T20:01:34.572Z,94.99
2022-11-05T20:04:02.641Z,95.05
2022-11-05T20:06:35.687Z,95.13
2022-11-05T20:09:22.475Z,95.17
2022-11-05T20:11:53.467Z,94.84
2022-11-05T20:14:20.828Z,94.73
2022-11-05T20:16:48.732Z,94.96
2022-11-05T20:19:19.320Z,95.44
2022-11-05T20:21:46.791Z,95.12
2022-11-05T20:24:22.472Z,94.91
2022-11-05T20:26:52.659Z,94.95
2022-11-05T20:29:20.320Z,95.06
2022-11-05T20:31:47.617Z,94.99
2022-11-05T20:34:14.799Z,94.58
2022-11-05T20:36:41.819Z,94.42
2022-11-05T20:39:10.588Z,94.17
2022-11-05T20:41:37.888Z,94.23
2022-11-05T20:44:04.985Z,93.99
2022-11-05T20:46:33.154Z,94.01
2022-11-05T20:49:00.220Z,94.13
2022-11-05T20:51:27.664Z,94.26
2022-11-05T20:54:00.240Z,93.83
2022-11-05T20:56:33.114Z,93.69
2022-11-05T20:59:01.412Z,94.19
2022-11-05T21:01:31.514Z,93.67
2022-11-05T21:03:59.864Z,93.96
2022-11-05T21:06:27.034Z,94.24
2022-11-05T21:08:54.516Z,94.33
2022-11-05T21:11:21.667Z,93.93
2022-11-05T21:13:49.547Z,93.85
2022-11-05T21:16:19.165Z,94.58
2022-11-05T21:18:47.174Z,94.45
2022-11-05T21:21:17.927Z,93.83
2022-11-05T21:23:45.398Z,93.29
2022-11-05T21:26:14.418Z,94.29
2022-11-05T21:28:41.979Z,94.12
2022-11-05T21:31:10.003Z,93.68
2022-11-05T21:33:37.701Z,93.59
2022-11-05T21:36:10.297Z,94.38
2022-11-05T21:38:37.709Z,94.41
2022-11-05T21:41:05.724Z,93.65
2022-11-05T21:43:33.222Z,93.53
2022-11-05T21:46:04.645Z,93.17
2022-11-05T21:48:32.610Z,93.36
2022-11-05T21:51:18.666Z,93.28
2022-11-05T21:54:04.578Z,93.99
2022-11-05T21:56:50.931Z,94.10
2022-11-05T21:59:39.211Z,93.47
2022-11-05T22:02:08.090Z,93.75
2022-11-05T22:04:39.525Z,93.68
2022-11-05T22:07:08.056Z,94.39
2022-11-05T22:09:35.184Z,93.60
2022-11-05T22:12:02.698Z,93.88
2022-11-05T22:14:29.986Z,93.82
2022-11-05T22:16:57.404Z,94.34
2022-11-05T22:19:25.487Z,94.00
2022-11-05T22:21:52.591Z,94.15
2022-11-05T22:24:20.072Z,93.72
2022-11-05T22:26:47.431Z,93.87
2022-11-05T22:29:14.944Z,94.22
2022-11-05T22:31:42.267Z,93.64
2022-11-05T22:34:10.463Z,93.59
2022-11-05T22:36:38.322Z,93.82
2022-11-05T22:39:05.773Z,93.29
2022-11-05T22:41:33.011Z,93.59
2022-11-05T22:44:00.084Z,94.05
2022-11-05T22:46:27.950Z,93.79
2022-11-05T22:48:56.486Z,94.07
2022-11-05T22:51:26.146Z,94.30
2022-11-05T22:53:54.962Z,93.57
2022-11-05T22:56:24.636Z,93.78
2022-11-05T22:58:52.000Z,93.59
2022-11-05T23:01:20.852Z,93.71
2022-11-05T23:03:49.646Z,94.20
2022-11-05T23:06:43.204Z,93.25
2022-11-05T23:09:35.212Z,93.22
2022-11-05T23:12:04.096Z,93.52
2022-11-05T23:14:31.628Z,93.59
2022-11-05T23:17:17.279Z,93.70
2022-11-05T23:20:02.910Z,93.13
2022-11-05T23:22:50.629Z,93.21
2022-11-05T23:25:21.217Z,92.83
2022-11-05T23:27:50.669Z,92.82
2022-11-05T23:30:21.159Z,93.32
2022-11-05T23:32:48.761Z,93.07
2022-11-05T23:35:16.576Z,93.10
2022-11-05T23:38:02.600Z,92.96
2022-11-05T23:40:51.637Z,93.25
2022-11-05T23:43:48.118Z,92.98
2022-11-05T23:46:33.670Z,92.83
2022-11-05T23:49:00.770Z,92.36
2022-11-05T23:51:27.811Z,92.57
2022-11-05T23:53:54.955Z,92.70
2022-11-05T23:56:22.047Z,92.58
2022-11-05T23:58:49.132Z,92.85
